Time;durP1;ratioP1;P1;durP2;ratioP2;P2;SDS_P1;SDS_P2;PMS_P1;PMS_P2;Temp;Humidity;BMP_temperature;BMP_pressure;BME280_temperature;BME280_humidity;BME280_pressure;Samples;Min_cycle;Max_cycle;Signal;HPM_P1;HPM_P2
2022/05/26 00:00:08;;;;;;;24.80;8.02;;;;;;;14.70;94.09;101571.72;5057630;28;20462;-49
2022/05/26 00:02:34;;;;;;;22.05;8.57;;;;;;;14.65;93.66;101569.72;5075708;28;20359;-42
2022/05/26 00:04:59;;;;;;;27.75;8.68;;;;;;;14.62;94.10;101583.09;5075510;28;20074;-43
2022/05/26 00:07:24;;;;;;;25.83;7.95;;;;;;;14.63;94.21;101574.31;5075274;28;20106;-44
2022/05/26 00:09:50;;;;;;;21.92;8.35;;;;;;;14.70;93.94;101576.91;5075681;28;20060;-43
2022/05/26 00:12:18;;;;;;;25.02;8.95;;;;;;;14.68;93.76;101579.72;5075480;28;20024;-44
2022/05/26 00:14:44;;;;;;;25.80;8.25;;;;;;;14.71;93.87;101586.34;5076386;28;20475;-43
2022/05/26 00:17:09;;;;;;;27.02;8.38;;;;;;;14.71;94.27;101589.75;5057261;28;20024;-42
2022/05/26 00:19:34;;;;;;;26.40;7.78;;;;;;;14.68;94.04;101584.94;5075400;28;20024;-42
2022/05/26 00:21:59;;;;;;;25.40;7.38;;;;;;;14.67;94.11;101588.50;5075776;28;20052;-43
2022/05/26 00:24:25;;;;;;;30.63;7.07;;;;;;;14.67;93.62;101588.50;5075004;28;20352;-42
2022/05/26 00:26:51;;;;;;;21.85;6.90;;;;;;;14.70;93.93;101592.53;5075316;28;20115;-43
2022/05/26 00:29:17;;;;;;;26.58;7.25;;;;;;;14.70;94.10;101590.72;5075496;28;20441;-42
2022/05/26 00:31:42;;;;;;;31.30;7.32;;;;;;;14.64;94.00;101588.91;5075449;28;20371;-43
2022/05/26 00:34:08;;;;;;;34.75;6.88;;;;;;;14.72;93.85;101582.75;5074882;28;20020;-43
2022/05/26 00:36:43;;;;;;;31.25;7.35;;;;;;;14.64;93.86;101592.31;5075036;28;20028;-41
2022/05/26 00:39:12;;;;;;;25.60;6.97;;;;;;;14.59;94.19;101586.91;5075146;28;20031;-42
2022/05/26 00:41:38;;;;;;;30.17;6.90;;;;;;;14.63;94.31;101589.91;5074767;28;20044;-41
2022/05/26 00:44:04;;;;;;;35.28;7.90;;;;;;;14.65;94.52;101587.91;5056788;28;20025;-42
2022/05/26 00:46:39;;;;;;;31.23;7.18;;;;;;;14.66;94.10;101584.31;5056852;28;20037;-41
2022/05/26 00:49:08;;;;;;;31.63;6.05;;;;;;;14.69;93.92;101591.72;5056682;28;20020;-42
2022/05/26 00:51:36;;;;;;;31.38;6.13;;;;;;;14.67;93.86;101588.50;5074686;28;20047;-43
2022/05/26 00:54:07;;;;;;;29.48;5.60;;;;;;;14.65;93.95;101593.13;5074567;28;20024;-43
2022/05/26 00:56:42;;;;;;;33.35;6.13;;;;;;;14.57;94.88;101595.88;5074694;28;20021;-42
2022/05/26 00:59:31;;;;;;;36.72;6.20;;;;;;;14.53;94.67;101597.25;5074868;28;20120;-42
2022/05/26 01:01:58;;;;;;;31.90;5.80;;;;;;;14.53;94.63;101602.44;5074559;28;20104;-43
2022/05/26 01:04:27;;;;;;;30.13;6.18;;;;;;;14.49;94.96;101596.00;5074537;28;20024;-43
2022/05/26 01:07:05;;;;;;;36.13;6.63;;;;;;;14.49;94.92;101602.00;5074401;28;20028;-42
2022/05/26 01:09:30;;;;;;;46.28;6.10;;;;;;;14.41;95.34;101607.38;5074524;28;20471;-41
2022/05/26 01:11:56;;;;;;;38.67;6.63;;;;;;;14.44;95.15;101607.81;5073955;28;20094;-42
2022/05/26 01:14:33;;;;;;;40.13;6.70;;;;;;;14.44;95.33;101607.81;5074375;28;20020;-43
2022/05/26 01:17:23;;;;;;;33.38;6.05;;;;;;;14.50;94.73;101611.44;5074333;28;20111;-42
2022/05/26 01:20:07;;;;;;;28.55;6.05;;;;;;;14.44;95.39;101618.22;5073809;28;20024;-42
2022/05/26 01:23:10;;;;;;;43.97;6.68;;;;;;;14.38;95.15;101605.94;5073989;28;20090;-42
2022/05/26 01:26:00;;;;;;;39.80;6.05;;;;;;;14.50;95.19;101628.81;5074350;28;20038;-42
2022/05/26 01:28:48;;;;;;;38.08;6.50;;;;;;;14.49;95.41;101617.63;5073807;28;20040;-42
2022/05/26 01:31:28;;;;;;;35.00;5.50;;;;;;;14.48;95.61;101628.22;5074081;28;20032;-43
2022/05/26 01:34:18;;;;;;;35.40;5.80;;;;;;;14.49;95.45;101625.41;5073944;28;20032;-42
2022/05/26 01:36:46;;;;;;;38.13;6.03;;;;;;;14.55;94.76;101619.47;5073799;28;20497;-44
2022/05/26 01:39:23;;;;;;;34.35;6.10;;;;;;;14.50;95.23;101626.22;5073828;28;20024;-42
2022/05/26 01:42:00;;;;;;;31.77;6.20;;;;;;;14.53;95.34;101631.06;5073587;28;20081;-43
2022/05/26 01:44:40;;;;;;;22.70;5.10;;;;;;;14.50;95.49;101636.63;5073651;28;20103;-42
2022/05/26 01:47:14;;;;;;;34.95;6.88;;;;;;;14.50;95.50;101631.41;5073526;28;20116;-44
2022/05/26 01:49:43;;;;;;;32.13;6.85;;;;;;;14.53;95.10;101633.66;5073631;28;20036;-42
2022/05/26 01:52:27;;;;;;;36.58;6.45;;;;;;;14.53;95.22;101634.50;5073434;28;20023;-42
2022/05/26 01:55:09;;;;;;;35.60;6.47;;;;;;;14.45;95.16;101640.59;5055531;28;20028;-41
2022/05/26 01:57:51;;;;;;;24.88;5.70;;;;;;;14.50;94.95;101644.41;5074194;28;20119;-43
2022/05/26 02:00:19;;;;;;;39.03;7.15;;;;;;;14.43;95.31;101641.78;5073721;28;20040;-43
2022/05/26 02:02:55;;;;;;;40.50;6.38;;;;;;;14.43;95.63;101641.78;5056196;28;20506;-41
2022/05/26 02:05:24;;;;;;;38.67;5.95;;;;;;;14.40;95.73;101645.56;5074156;28;20025;-42
2022/05/26 02:07:57;;;;;;;32.72;6.57;;;;;;;14.33;95.60;101643.94;5073168;28;20075;-44
2022/05/26 02:10:28;;;;;;;36.03;6.00;;;;;;;14.43;95.15;101637.38;5073414;28;20032;-44
2022/05/26 02:13:05;;;;;;;35.90;6.20;;;;;;;14.38;95.00;101644.94;5073652;28;20028;-43
2022/05/26 02:15:40;;;;;;;31.55;6.57;;;;;;;14.40;94.81;101648.16;5073355;28;20028;-43
2022/05/26 02:18:11;;;;;;;39.10;6.57;;;;;;;14.48;95.10;101651.63;5073802;28;20028;-41
2022/05/26 02:20:44;;;;;;;33.03;6.13;;;;;;;14.42;94.78;101651.41;5073190;28;20051;-43
2022/05/26 02:23:35;;;;;;;31.98;5.65;;;;;;;14.35;94.46;101657.53;5073232;28;20017;-42
2022/05/26 02:26:02;;;;;;;27.58;6.45;;;;;;;14.32;94.98;101655.31;5070140;28;20044;-43
2022/05/26 02:28:28;;;;;;;32.10;6.32;;;;;;;14.30;95.13;101659.91;5073392;28;20028;-42
2022/05/26 02:30:55;;;;;;;27.58;5.82;;;;;;;14.36;94.49;101662.56;5073010;28;20036;-43
2022/05/26 02:33:21;;;;;;;30.98;5.38;;;;;;;14.34;95.30;101674.94;5059515;28;20024;-42
2022/05/26 02:35:51;;;;;;;43.25;6.35;;;;;;;14.40;94.54;101671.56;5077715;28;20021;-42
2022/05/26 02:38:19;;;;;;;33.75;5.25;;;;;;;14.34;93.91;101677.53;5077363;28;20027;-49
2022/05/26 02:40:45;;;;;;;30.52;5.18;;;;;;;14.41;93.70;101678.41;5077056;28;20356;-42
2022/05/26 02:43:19;;;;;;;37.35;5.10;;;;;;;14.39;93.95;101680.38;5076933;28;20035;-43
2022/05/26 02:46:10;;;;;;;27.65;5.68;;;;;;;14.31;93.92;101666.72;5077249;28;20029;-43
2022/05/26 02:49:17;;;;;;;27.70;5.28;;;;;;;14.30;93.78;101681.53;5077188;28;20056;-48
2022/05/26 02:51:53;;;;;;;31.05;5.60;;;;;;;14.39;93.55;101682.19;5077446;28;20020;-42
2022/05/26 02:54:31;;;;;;;29.02;5.28;;;;;;;14.35;93.56;101686.94;5077317;28;20028;-42
2022/05/26 02:57:11;;;;;;;28.92;5.53;;;;;;;14.34;93.73;101689.75;5077086;28;20138;-42
2022/05/26 02:59:53;;;;;;;20.23;4.38;;;;;;;14.41;93.24;101691.41;5059050;28;20111;-42
2022/05/26 03:02:43;;;;;;;27.52;5.00;;;;;;;14.33;92.32;101683.75;5077198;28;20107;-42
2022/05/26 03:05:30;;;;;;;25.45;4.47;;;;;;;14.32;92.00;101683.91;5058650;28;20036;-42
2022/05/26 03:07:59;;;;;;;28.17;5.43;;;;;;;14.38;91.37;101691.75;5076789;28;20049;-43
2022/05/26 03:10:28;;;;;;;27.58;4.35;;;;;;;14.48;90.74;101696.63;5077060;28;20027;-43
2022/05/26 03:12:54;;;;;;;30.95;4.93;;;;;;;14.40;90.31;101689.78;5076351;28;20031;-42
2022/05/26 03:15:20;;;;;;;21.73;3.92;;;;;;;14.41;90.08;101694.00;5076645;28;20023;-41
2022/05/26 03:17:45;;;;;;;29.60;4.60;;;;;;;14.41;90.14;101698.38;5076392;28;20463;-43
2022/05/26 03:20:11;;;;;;;24.85;3.97;;;;;;;14.41;89.93;101700.97;5059215;28;20398;-42
2022/05/26 03:22:38;;;;;;;18.13;4.00;;;;;;;14.42;90.02;101700.81;5058415;28;20024;-41
2022/05/26 03:25:04;;;;;;;24.10;3.88;;;;;;;14.32;90.53;101697.72;5076280;28;20056;-41
2022/05/26 03:27:29;;;;;;;21.75;3.67;;;;;;;14.28;89.95;101706.09;5076108;28;20123;-43
2022/05/26 03:29:55;;;;;;;21.17;3.65;;;;;;;14.24;90.13;101705.66;5076472;28;20060;-43
2022/05/26 03:32:21;;;;;;;23.23;3.90;;;;;;;14.15;90.22;101702.38;5076327;28;20064;-43
2022/05/26 03:42:58;;;;;;;23.23;3.92;;;;;;;13.92;90.79;101709.59;5075817;28;20115;-47
2022/05/26 03:45:24;;;;;;;18.15;3.38;;;;;;;13.91;90.39;101701.00;5075873;28;20103;-42
2022/05/26 03:47:50;;;;;;;20.42;3.22;;;;;;;13.92;89.93;101710.38;5076291;28;20032;-43
2022/05/26 03:50:17;;;;;;;15.52;3.00;;;;;;;13.91;89.63;101711.38;5075851;28;20020;-43
2022/05/26 03:52:42;;;;;;;19.73;3.17;;;;;;;13.92;89.75;101715.56;5058470;28;20025;-42
2022/05/26 03:55:08;;;;;;;15.43;3.22;;;;;;;13.97;89.79;101721.03;5075632;28;20036;-42
2022/05/26 03:57:33;;;;;;;19.60;2.88;;;;;;;14.00;89.26;101720.66;5075779;28;20043;-41
2022/05/26 03:59:59;;;;;;;13.90;3.08;;;;;;;13.99;89.20;101726.84;5075827;28;20386;-41
2022/05/26 04:02:25;;;;;;;17.05;3.20;;;;;;;14.00;89.43;101725.84;5075567;28;20016;-42
2022/05/26 04:04:51;;;;;;;18.42;3.30;;;;;;;13.99;89.55;101728.66;5057629;28;20028;-42
2022/05/26 04:07:16;;;;;;;17.17;3.33;;;;;;;14.02;89.32;101733.47;5054046;28;20061;-42
2022/05/26 04:09:41;;;;;;;13.68;2.83;;;;;;;14.06;89.30;101736.50;5055503;28;20475;-42
2022/05/26 04:12:08;;;;;;;15.75;3.28;;;;;;;14.02;89.80;101740.47;5055281;28;20480;-41
2022/05/26 04:14:34;;;;;;;13.25;2.63;;;;;;;14.04;88.94;101741.91;5055321;28;20116;-42
2022/05/26 04:16:59;;;;;;;15.25;3.17;;;;;;;14.11;88.43;101747.94;5055526;28;20111;-42
2022/05/26 04:19:25;;;;;;;18.95;3.00;;;;;;;14.15;88.17;101745.78;5055541;28;20432;-42
2022/05/26 04:24:35;;;;;;;13.65;3.10;;;;;;;14.22;88.19;101750.03;5055711;28;20044;-42
2022/05/26 04:27:00;;;;;;;9.88;2.50;;;;;;;14.17;87.61;101756.78;5055611;28;20029;-43
2022/05/26 04:29:25;;;;;;;11.20;2.58;;;;;;;14.19;87.04;101762.63;5055635;28;20055;-45
2022/05/26 04:31:51;;;;;;;13.95;2.95;;;;;;;14.20;86.54;101762.41;5055165;28;20032;-42
2022/05/26 04:34:16;;;;;;;12.32;2.75;;;;;;;14.31;87.04;101771.53;5055911;28;20025;-41
2022/05/26 04:36:42;;;;;;;12.40;2.42;;;;;;;14.30;86.51;101774.28;5055142;28;20084;-42
2022/05/26 04:39:08;;;;;;;14.00;2.78;;;;;;;14.17;86.58;101770.59;5054926;28;20525;-42
2022/05/26 04:41:33;;;;;;;17.80;3.28;;;;;;;14.27;87.42;101782.47;5053589;28;20025;-42
2022/05/26 04:43:58;;;;;;;11.98;2.65;;;;;;;14.33;87.01;101779.94;5055354;28;20056;-42
2022/05/26 04:46:24;;;;;;;10.63;2.30;;;;;;;14.35;86.87;101783.16;5054777;28;20356;-42
2022/05/26 04:48:49;;;;;;;14.38;2.72;;;;;;;14.39;87.26;101783.59;5054992;28;20033;-42
2022/05/26 04:51:14;;;;;;;14.57;2.67;;;;;;;14.47;86.55;101783.44;5054563;28;20553;-42
2022/05/26 04:53:39;;;;;;;11.02;2.80;;;;;;;14.43;86.87;101777.81;5054791;28;20041;-42
2022/05/26 04:56:05;;;;;;;11.82;2.65;;;;;;;14.50;86.63;101782.25;5054109;28;20414;-43
2022/05/26 04:58:30;;;;;;;11.18;2.78;;;;;;;14.57;86.21;101781.34;5054760;28;20040;-43
2022/05/26 05:00:55;;;;;;;13.98;2.80;;;;;;;14.63;85.82;101782.41;5055026;28;20037;-45
2022/05/26 05:03:21;;;;;;;15.13;2.92;;;;;;;14.58;85.85;101793.34;5036534;28;20349;-43
2022/05/26 05:05:47;;;;;;;8.57;2.30;;;;;;;14.47;86.19;101791.25;5054711;28;20033;-42
2022/05/26 05:08:12;;;;;;;13.00;2.83;;;;;;;14.43;86.45;101792.63;5066335;28;20036;-43
2022/05/26 05:10:38;;;;;;;9.68;2.70;;;;;;;14.51;86.18;101800.28;5074521;28;20035;-42
2022/05/26 05:13:03;;;;;;;11.98;2.40;;;;;;;14.49;86.59;101796.25;5074133;28;20085;-42
2022/05/26 05:15:36;;;;;;;14.80;3.00;;;;;;;14.49;86.47;101798.88;5074352;28;20082;-41
2022/05/26 05:18:02;;;;;;;12.88;2.83;;;;;;;14.48;86.69;101802.47;5074617;28;20035;-43
2022/05/26 05:20:27;;;;;;;9.65;2.58;;;;;;;14.61;86.28;101802.59;5073967;28;20471;-42
2022/05/26 05:23:00;;;;;;;12.30;2.65;;;;;;;14.67;85.86;101812.22;5074192;28;20028;-42
2022/05/26 05:25:28;;;;;;;;;;;;;;;14.79;85.20;101809.94;5074052;28;20082;-42
2022/05/26 05:27:55;;;;;;;7.97;2.60;;;;;;;14.72;84.88;101803.88;5073761;28;19912;-43
2022/05/26 05:30:29;;;;;;;12.15;2.60;;;;;;;14.65;85.04;101814.25;5073946;28;20016;-44
2022/05/26 05:33:33;;;;;;;15.32;2.65;;;;;;;14.71;85.04;101821.28;5073913;28;20025;-42
2022/05/26 05:36:06;;;;;;;15.98;2.80;;;;;;;14.86;84.48;101827.19;5073838;28;20017;-42
2022/05/26 05:38:34;;;;;;;9.93;2.55;;;;;;;15.05;83.86;101830.94;5073647;28;20032;-42
2022/05/26 05:41:01;;;;;;;13.75;2.80;;;;;;;15.44;82.26;101829.53;5055740;28;20024;-43
2022/05/26 05:43:27;;;;;;;12.13;2.67;;;;;;;15.60;81.43;101840.63;5074439;28;20029;-43
2022/05/26 05:45:52;;;;;;;9.93;2.50;;;;;;;18.07;73.43;101847.31;5073685;28;20028;-43
2022/05/26 05:48:17;;;;;;;15.50;2.83;;;;;;;16.97;74.28;101842.06;5074149;28;20028;-43
2022/05/26 05:50:42;;;;;;;11.38;2.58;;;;;;;20.82;62.34;101850.81;5055645;28;20496;-43
2022/05/26 05:53:09;;;;;;;14.57;2.50;;;;;;;24.86;50.04;101845.88;5073438;28;20027;-43
2022/05/26 05:55:34;;;;;;;11.05;2.95;;;;;;;26.33;45.47;101847.28;5073782;28;20386;-43
2022/05/26 05:57:59;;;;;;;7.75;2.10;;;;;;;26.83;42.48;101842.16;5073727;28;20054;-42
2022/05/26 06:00:25;;;;;;;10.88;2.17;;;;;;;26.88;41.26;101848.22;5073451;28;20024;-44
2022/05/26 06:02:50;;;;;;;11.63;2.60;;;;;;;27.71;40.09;101846.75;5073426;28;20029;-43
2022/05/26 06:05:16;;;;;;;9.32;2.30;;;;;;;26.92;41.35;101853.78;5073791;28;20033;-43
2022/05/26 06:07:41;;;;;;;10.90;2.67;;;;;;;27.86;38.98;101851.19;5073211;28;20055;-42
2022/05/26 06:10:12;;;;;;;12.63;2.28;;;;;;;27.90;38.99;101862.84;5073124;28;20016;-43
2022/05/26 06:12:38;;;;;;;12.07;2.58;;;;;;;27.89;38.51;101859.38;5073427;28;20035;-41
2022/05/26 06:15:04;;;;;;;9.00;2.10;;;;;;;27.96;38.64;101860.94;5073090;28;20387;-43
2022/05/26 06:17:30;;;;;;;8.60;2.22;;;;;;;27.72;39.78;101868.78;5073500;28;20120;-41
2022/05/26 06:19:55;;;;;;;8.65;2.42;;;;;;;28.63;37.72;101864.59;5073590;28;20025;-41
2022/05/26 06:22:22;;;;;;;7.75;2.10;;;;;;;29.04;36.67;101866.81;5072778;28;20028;-42
2022/05/26 06:24:48;;;;;;;8.40;2.15;;;;;;;28.32;37.25;101874.72;5073108;28;20094;-42
2022/05/26 06:30:07;;;;;;;7.03;2.00;;;;;;;23.11;48.11;101869.09;5073601;28;20121;-42
2022/05/26 06:38:37;;;;;;;10.80;2.25;;;;;;;21.25;54.55;101881.16;5073492;28;20079;-40
2022/05/26 06:43:49;;;;;;;12.25;2.00;;;;;;;25.26;44.26;101884.16;5073593;28;20039;-42
2022/05/26 06:46:15;;;;;;;9.90;2.40;;;;;;;22.73;49.48;101889.91;5073019;28;20470;-41
2022/05/26 06:48:40;;;;;;;11.57;2.50;;;;;;;20.89;55.03;101889.09;5073324;28;20050;-42
2022/05/26 06:51:06;;;;;;;7.68;1.92;;;;;;;20.42;56.33;101893.47;5073181;28;20024;-42
2022/05/26 06:53:32;;;;;;;8.15;2.03;;;;;;;20.98;55.86;101894.81;5072895;28;20390;-41
2022/05/26 06:55:57;;;;;;;9.27;1.83;;;;;;;20.64;57.06;101896.38;5072779;28;20115;-43
2022/05/26 06:58:23;;;;;;;9.10;2.28;;;;;;;20.02;59.14;101891.41;5072891;28;20021;-42
2022/05/26 07:00:48;;;;;;;8.13;2.28;;;;;;;21.12;55.73;101900.63;5054909;28;20391;-44
2022/05/26 07:03:16;;;;;;;9.02;2.20;;;;;;;22.00;53.02;101899.47;5072691;28;20391;-43
2022/05/26 07:05:42;;;;;;;11.23;2.20;;;;;;;21.84;54.39;101902.88;5073365;28;20029;-43
2022/05/26 07:08:07;;;;;;;10.70;2.22;;;;;;;21.95;52.99;101902.03;5072695;28;20411;-42
2022/05/26 07:10:34;;;;;;;9.05;2.47;;;;;;;21.56;53.26;101911.56;5073012;28;20115;-43
2022/05/26 07:13:00;;;;;;;10.00;1.98;;;;;;;20.94;55.28;101910.22;5072610;28;20027;-40
2022/05/26 07:15:25;;;;;;;7.28;2.13;;;;;;;20.18;56.96;101921.47;5072728;28;20025;-43
2022/05/26 07:17:50;;;;;;;11.30;2.60;;;;;;;19.76;57.96;101913.53;5074340;28;20028;-42
2022/05/26 07:20:16;;;;;;;9.88;2.58;;;;;;;19.47;59.11;101918.47;5076648;28;20463;-43
2022/05/26 07:22:41;;;;;;;10.20;2.10;;;;;;;19.61;59.35;101921.75;5076603;28;20024;-43
2022/05/26 07:25:07;;;;;;;11.02;2.33;;;;;;;19.83;60.25;101920.31;5058690;28;20108;-48
2022/05/26 07:27:33;;;;;;;10.90;2.50;;;;;;;19.35;61.21;101915.78;5076089;28;20032;-44
2022/05/26 07:29:59;;;;;;;11.90;2.30;;;;;;;19.34;60.34;101924.66;5076408;28;20075;-43
2022/05/26 07:32:25;;;;;;;9.23;2.05;;;;;;;19.10;62.62;101925.50;5076026;28;20024;-44
2022/05/26 07:34:50;;;;;;;10.98;2.13;;;;;;;19.47;59.01;101936.81;5076586;28;20020;-43
2022/05/26 07:42:43;;;;;;;11.45;2.33;;;;;;;19.96;59.62;101935.06;5076342;28;20030;-42
2022/05/26 07:45:09;;;;;;;8.05;2.35;;;;;;;20.01;58.62;101942.28;5076135;28;20111;-43
2022/05/26 07:47:36;;;;;;;9.43;2.30;;;;;;;19.78;59.89;101929.84;5076655;28;20067;-43
2022/05/26 07:50:03;;;;;;;8.75;2.30;;;;;;;20.42;59.68;101928.38;5075745;28;20024;-43
2022/05/26 07:52:29;;;;;;;8.00;2.38;;;;;;;21.03;56.53;101928.25;5075904;28;20058;-43
2022/05/26 07:54:54;;;;;;;10.13;2.20;;;;;;;21.02;54.53;101929.31;5075570;28;20331;-43
2022/05/26 07:57:23;;;;;;;8.85;2.15;;;;;;;21.04;54.90;101927.25;5075971;28;20058;-41
2022/05/26 07:59:50;;;;;;;9.68;2.03;;;;;;;20.91;53.01;101930.88;5057550;28;20364;-42
2022/05/26 08:02:17;;;;;;;10.13;2.30;;;;;;;21.49;52.29;101926.66;5075575;28;20020;-43
2022/05/26 08:04:43;;;;;;;12.88;2.40;;;;;;;19.90;57.07;101937.78;5057432;28;20120;-43
2022/05/26 08:07:08;;;;;;;10.70;2.15;;;;;;;19.60;56.67;101943.75;5075384;28;20072;-41
2022/05/26 08:09:37;;;;;;;8.10;2.13;;;;;;;20.33;55.77;101934.97;5075726;28;20430;-42
2022/05/26 08:12:07;;;;;;;9.43;2.13;;;;;;;20.25;56.06;101936.13;5075408;28;20025;-43
2022/05/26 08:14:32;;;;;;;10.68;2.35;;;;;;;20.58;57.76;101936.69;5075437;28;20028;-43
2022/05/26 08:16:58;;;;;;;9.32;2.28;;;;;;;20.61;59.18;101929.16;5075600;28;20027;-42
2022/05/26 08:19:24;;;;;;;8.63;2.10;;;;;;;21.13;56.46;101937.19;5075175;28;20032;-49
2022/05/26 08:21:49;;;;;;;12.38;2.40;;;;;;;20.25;58.25;101933.50;5075410;28;20027;-42
2022/05/26 08:24:17;;;;;;;13.50;2.65;;;;;;;19.11;60.94;101941.00;5075875;28;20477;-41
2022/05/26 08:26:42;;;;;;;8.18;2.47;;;;;;;19.78;59.63;101940.34;5040931;28;20030;-44
2022/05/26 08:29:08;;;;;;;10.55;2.45;;;;;;;20.88;55.58;101942.66;5073872;28;20534;-43
2022/05/26 08:31:33;;;;;;;10.13;2.33;;;;;;;21.21;55.31;101943.94;5074846;28;20036;-43
2022/05/26 08:33:58;;;;;;;7.43;2.13;;;;;;;20.24;55.61;101950.25;5057832;28;20044;-43
2022/05/26 08:36:28;;;;;;;8.48;2.50;;;;;;;20.34;56.57;101952.34;5075273;28;20056;-44
2022/05/26 08:38:55;;;;;;;12.20;2.20;;;;;;;20.41;56.43;101947.78;5074819;28;20036;-42
2022/05/26 08:41:23;;;;;;;9.38;2.22;;;;;;;19.93;58.72;101963.56;5075005;28;20017;-43
2022/05/26 08:44:10;;;;;;;10.70;2.30;;;;;;;19.25;60.43;101977.56;5074624;28;20396;-43
2022/05/26 08:46:43;;;;;;;8.73;2.35;;;;;;;19.48;59.82;101971.69;5074948;28;20381;-43
2022/05/26 08:49:08;;;;;;;9.20;2.10;;;;;;;20.50;59.34;101982.41;5074910;28;20350;-42
2022/05/26 08:51:57;;;;;;;9.30;2.50;;;;;;;20.89;56.71;101972.38;5074646;28;20097;-42
2022/05/26 08:54:52;;;;;;;9.98;2.10;;;;;;;21.12;55.42;101974.22;5074730;28;20271;-43
2022/05/26 08:57:23;;;;;;;9.25;2.10;;;;;;;21.92;52.93;101975.38;5073962;28;20128;-43
2022/05/26 08:59:49;;;;;;;8.75;2.20;;;;;;;20.81;55.49;101981.38;5074364;28;20475;-43
2022/05/26 09:02:25;;;;;;;9.25;2.33;;;;;;;21.40;54.33;101973.53;5074504;28;20028;-43
2022/05/26 09:04:51;;;;;;;7.05;1.83;;;;;;;21.24;53.21;101979.47;5056459;28;20115;-43
2022/05/26 09:12:59;;;;;;;8.85;1.85;;;;;;;22.08;51.38;101983.34;5074292;28;20043;-43
2022/05/26 09:15:28;;;;;;;10.25;2.00;;;;;;;21.62;51.40;101979.78;5074370;28;20378;-44
2022/05/26 09:17:55;;;;;;;8.32;2.20;;;;;;;20.85;53.12;101995.66;5074088;28;20032;-42
2022/05/26 09:20:41;;;;;;;4.35;1.60;;;;;;;20.73;54.63;101993.00;5073976;28;20158;-42
2022/05/26 09:23:12;;;;;;;7.53;2.00;;;;;;;20.84;53.93;101999.31;5073963;28;20024;-42
2022/05/26 09:25:38;;;;;;;9.45;2.33;;;;;;;21.93;51.65;101998.84;5074336;28;20024;-42
2022/05/26 09:28:04;;;;;;;10.10;2.27;;;;;;;22.44;51.68;102005.09;5073818;28;20036;-44
2022/05/26 09:30:33;;;;;;;7.72;1.85;;;;;;;21.63;53.64;101999.78;5074169;28;20266;-42
2022/05/26 09:32:59;;;;;;;10.27;2.35;;;;;;;22.34;51.22;102010.16;5074020;28;20024;-43
2022/05/26 09:35:29;;;;;;;8.40;2.00;;;;;;;21.37;50.17;102010.81;5074018;28;20432;-43
2022/05/26 09:38:01;;;;;;;10.63;2.17;;;;;;;21.19;51.14;102006.44;5074069;28;20021;-43
2022/05/26 09:40:37;;;;;;;7.68;1.75;;;;;;;21.55;51.10;102015.13;5073364;28;20048;-42
2022/05/26 09:43:15;;;;;;;8.30;2.00;;;;;;;21.76;51.26;102013.75;5074026;28;20035;-43
2022/05/26 09:45:44;;;;;;;7.88;1.70;;;;;;;21.75;49.63;102020.03;5073954;28;20078;-43
2022/05/26 09:48:17;;;;;;;9.00;1.98;;;;;;;21.07;51.93;102016.16;5073912;28;20074;-43
2022/05/26 09:50:47;;;;;;;;;;;;;;;21.63;51.93;102033.19;5074218;28;20360;-42
2022/05/26 09:53:13;;;;;;;16.63;2.28;;;;;;;22.03;50.94;102038.50;5073772;28;20321;-44
2022/05/26 09:55:50;;;;;;;10.95;2.28;;;;;;;21.13;52.94;102034.44;5073842;28;20107;-41
2022/05/26 09:58:29;;;;;;;7.50;2.00;;;;;;;20.57;53.58;102033.06;5073912;28;20079;-41
2022/05/26 10:01:06;;;;;;;7.45;2.00;;;;;;;20.68;54.43;102026.22;5073662;28;20467;-43
2022/05/26 10:03:47;;;;;;;10.05;2.15;;;;;;;20.13;54.29;102036.81;5073496;28;20475;-43
2022/05/26 10:06:20;;;;;;;4.78;1.55;;;;;;;19.94;54.57;102046.50;5073709;28;20028;-43
2022/05/26 10:09:15;;;;;;;10.65;1.85;;;;;;;21.00;52.09;102028.56;5073280;28;20045;-43
2022/05/26 10:12:11;;;;;;;8.23;2.17;;;;;;;22.33;50.33;102019.09;5073177;28;20111;-43
2022/05/26 10:14:46;;;;;;;8.30;1.85;;;;;;;22.45;48.64;102022.47;5073347;28;20475;-43
2022/05/26 10:17:16;;;;;;;7.13;1.80;;;;;;;22.66;50.16;102025.47;5073598;28;20052;-43
2022/05/26 10:20:10;;;;;;;6.97;2.00;;;;;;;22.36;47.94;102031.81;5073591;28;20374;-41
2022/05/26 10:22:47;;;;;;;25.77;2.00;;;;;;;21.92;47.65;102026.16;5073203;28;20015;-41
2022/05/26 10:25:43;;;;;;;7.38;1.40;;;;;;;21.16;50.54;102033.16;5073467;28;20086;-42
2022/05/26 10:28:32;;;;;;;9.43;1.90;;;;;;;21.89;49.93;102034.53;5073281;28;20484;-41
2022/05/26 10:31:13;;;;;;;11.27;2.10;;;;;;;21.53;50.14;102030.38;5055764;28;20094;-43
2022/05/26 10:34:00;;;;;;;6.50;1.58;;;;;;;21.45;50.69;102028.88;5073626;28;20032;-41
2022/05/26 10:36:37;;;;;;;6.75;1.80;;;;;;;21.28;50.50;102025.28;5073027;28;20016;-43
2022/05/26 10:39:13;;;;;;;10.45;1.83;;;;;;;20.81;51.59;102031.28;5073402;28;20580;-41
2022/05/26 10:41:56;;;;;;;11.02;2.08;;;;;;;21.09;50.82;102033.28;5073599;28;20021;-42
2022/05/26 10:44:29;;;;;;;9.07;2.33;;;;;;;20.90;51.88;102039.66;5073527;28;20174;-43
2022/05/26 10:47:00;;;;;;;;;;;;;;;20.31;52.95;102035.97;5073453;28;20024;-43
2022/05/26 10:49:49;;;;;;;12.98;2.17;;;;;;;20.91;52.21;102028.09;5073291;28;20274;-43
2022/05/26 10:52:31;;;;;;;9.52;2.03;;;;;;;21.00;51.01;102033.81;5073558;28;20150;-43
2022/05/26 10:55:07;;;;;;;10.73;2.10;;;;;;;20.79;51.61;102032.53;5077163;28;20032;-43
2022/05/26 10:57:43;;;;;;;10.55;2.10;;;;;;;21.25;52.17;102028.38;5076758;28;20024;-46
2022/05/26 11:00:14;;;;;;;10.18;1.98;;;;;;;21.62;50.82;102023.72;5076934;28;20115;-43
2022/05/26 11:02:58;;;;;;;10.57;2.00;;;;;;;21.76;49.32;102026.91;5076710;28;20032;-42
2022/05/26 11:05:35;;;;;;;7.82;1.98;;;;;;;22.37;48.34;102030.75;5076636;28;20036;-41
2022/05/26 11:08:25;;;;;;;8.32;1.65;;;;;;;22.24;47.90;102031.03;5076525;28;20398;-42
2022/05/26 11:11:10;;;;;;;9.75;2.03;;;;;;;21.71;48.71;102027.59;5076599;28;20028;-43
2022/05/26 11:13:55;;;;;;;10.13;2.38;;;;;;;21.49;48.78;102010.78;5076437;28;20021;-43
2022/05/26 11:19:37;;;;;;;4.85;1.60;;;;;;;21.72;48.28;102007.34;5077143;28;20104;-42
2022/05/26 11:22:04;;;;;;;8.82;2.10;;;;;;;21.90;48.78;102012.47;5076297;28;20024;-43
2022/05/26 11:24:30;;;;;;;8.18;1.95;;;;;;;22.06;48.66;102018.81;5076514;28;20111;-43
2022/05/26 11:27:11;;;;;;;9.32;2.72;;;;;;;23.07;45.84;102012.97;5058341;28;20124;-43
2022/05/26 11:36:07;;;;;;;13.73;3.63;;;;;;;22.67;46.36;102019.97;5076346;28;20024;-43
2022/05/26 11:38:28;;;;;;;14.32;2.00;;;;;;;22.30;45.23;102006.41;5076567;28;20038;-43
2022/05/26 11:41:54;;;;;;;7.30;1.77;;;;;;;22.17;46.33;102020.63;5075893;28;20024;-43
2022/05/26 11:44:41;;;;;;;4.95;1.70;;;;;;;21.86;45.09;102016.56;4990875;28;20042;-43
2022/05/26 11:47:24;;;;;;;8.40;1.70;;;;;;;21.38;45.44;102021.09;5076460;28;20025;-43
2022/05/26 11:49:49;;;;;;;5.80;1.88;;;;;;;21.35;46.64;102012.84;5075869;28;20032;-41
2022/05/26 11:52:45;;;;;;;6.53;1.40;;;;;;;21.69;47.83;102015.69;5076177;28;20025;-42
2022/05/26 11:55:18;;;;;;;7.75;1.83;;;;;;;21.30;46.38;102012.72;5057837;28;20033;-42
2022/05/26 11:57:43;;;;;;;7.30;1.60;;;;;;;21.84;47.07;102018.66;5057612;28;20033;-42
2022/05/26 12:00:17;;;;;;;11.10;2.10;;;;;;;23.39;46.17;102029.81;5075931;28;20482;-43
2022/05/26 12:02:45;;;;;;;8.68;2.10;;;;;;;22.70;43.69;102035.31;5076082;28;20024;-43
2022/05/26 12:05:46;;;;;;;9.35;2.50;;;;;;;21.77;45.95;102026.66;5075435;28;20027;-40
2022/05/26 12:08:57;;;;;;;5.18;1.30;;;;;;;21.28;46.54;102033.19;5013574;28;20049;-42
2022/05/26 12:11:54;;;;;;;5.38;1.33;;;;;;;21.75;46.34;102025.28;5030255;28;20424;-42
2022/05/26 12:14:26;;;;;;;6.80;1.58;;;;;;;21.15;46.33;102032.38;5075230;28;20032;-43
2022/05/26 12:16:52;;;;;;;7.65;1.90;;;;;;;21.80;46.10;102017.50;5075905;28;20027;-43
2022/05/26 12:19:40;;;;;;;5.82;1.30;;;;;;;22.00;46.28;102014.47;5075302;28;20024;-43
2022/05/26 12:22:26;;;;;;;6.10;1.52;;;;;;;21.86;46.92;102019.22;5075497;28;20094;-46
2022/05/26 12:24:57;;;;;;;8.48;1.67;;;;;;;22.05;45.17;102007.50;5075363;28;20024;-40